Time;durP1;ratioP1;P1;durP2;ratioP2;P2;SDS_P1;SDS_P2;PMS_P1;PMS_P2;Temp;Humidity;BMP_temperature;BMP_pressure;BME280_temperature;BME280_humidity;BME280_pressure;Samples;Min_cycle;Max_cycle;Signal;HPM_P1;HPM_P2
2022/07/24 00:01:37;;;;;;;6.70;4.72;;;21.10;99.90;;;;;;5043914;28;20210;-78
2022/07/24 00:04:05;;;;;;;4.35;3.95;;;21.10;99.90;;;;;;5027486;28;20213;-78
2022/07/24 00:06:33;;;;;;;4.05;3.63;;;20.90;99.90;;;;;;5037918;28;20195;-78
2022/07/24 00:09:01;;;;;;;4.50;4.10;;;20.90;99.90;;;;;;5030287;28;20198;-78
2022/07/24 00:11:28;;;;;;;4.93;3.97;;;20.80;99.90;;;;;;5028609;28;20201;-78
2022/07/24 00:16:33;;;;;;;3.85;3.55;;;20.70;99.90;;;;;;5048916;28;20208;-78
2022/07/24 00:19:00;;;;;;;5.88;4.45;;;20.60;99.90;;;;;;5038072;28;20194;-78
2022/07/24 00:21:27;;;;;;;5.25;4.20;;;20.50;99.90;;;;;;5048397;28;20194;-78
2022/07/24 00:23:55;;;;;;;4.10;3.65;;;20.40;99.90;;;;;;5046191;28;20203;-78
2022/07/24 00:26:22;;;;;;;4.40;3.92;;;20.50;99.90;;;;;;5048595;28;20201;-78
2022/07/24 00:28:50;;;;;;;5.60;4.00;;;20.50;99.90;;;;;;5044999;28;20210;-78
2022/07/24 00:31:18;;;;;;;5.32;3.78;;;20.50;99.90;;;;;;5024373;28;20199;-78
2022/07/24 00:33:48;;;;;;;4.50;4.10;;;20.50;99.90;;;;;;5040879;28;20206;-78
2022/07/24 00:36:16;;;;;;;5.20;4.70;;;20.40;99.90;;;;;;5028312;28;20203;-78
2022/07/24 00:38:44;;;;;;;4.75;4.30;;;20.40;99.90;;;;;;5040064;28;20191;-78
2022/07/24 00:41:12;;;;;;;5.95;4.50;;;20.20;99.90;;;;;;5044396;28;20202;-78
2022/07/24 00:44:02;;;;;;;4.60;4.15;;;20.00;99.90;;;;;;5046029;28;20210;-78
2022/07/24 00:46:29;;;;;;;5.03;4.53;;;20.10;99.90;;;;;;5035386;28;20206;-78
2022/07/24 00:48:58;;;;;;;4.78;4.38;;;20.00;99.90;;;;;;5026411;28;20241;-78
2022/07/24 00:51:26;;;;;;;6.80;4.82;;;20.10;99.90;;;;;;5039413;28;20210;-78
2022/07/24 00:53:53;;;;;;;5.32;4.80;;;20.00;99.90;;;;;;5026856;28;20218;-78
2022/07/24 00:56:21;;;;;;;4.72;4.32;;;20.00;99.90;;;;;;5040261;28;20198;-78
2022/07/24 00:58:50;;;;;;;5.28;4.78;;;19.90;99.90;;;;;;5041737;28;20199;-78
2022/07/24 01:01:18;;;;;;;6.38;4.85;;;19.90;99.90;;;;;;5043311;28;20206;-78
2022/07/24 01:03:46;;;;;;;7.47;4.55;;;19.80;99.90;;;;;;5029194;28;20194;-78
2022/07/24 01:06:15;;;;;;;5.10;4.65;;;19.70;99.90;;;;;;5025718;28;20225;-78
2022/07/24 01:08:44;;;;;;;4.85;4.22;;;20.00;99.90;;;;;;5030370;28;20245;-78
2022/07/24 01:11:12;;;;;;;4.53;4.13;;;20.10;99.90;;;;;;5030815;28;20956;-78
2022/07/24 01:13:40;;;;;;;5.10;4.53;;;20.40;99.90;;;;;;5043148;28;20199;-78
2022/07/24 01:16:08;;;;;;;4.70;4.18;;;20.40;99.90;;;;;;5043481;28;20228;-78
2022/07/24 01:18:36;;;;;;;5.57;4.32;;;20.40;99.90;;;;;;5042946;28;20206;-78
2022/07/24 01:21:06;;;;;;;4.47;4.07;;;20.80;99.90;;;;;;5041831;28;20234;-78
2022/07/24 01:23:33;;;;;;;5.18;4.55;;;21.00;99.90;;;;;;5048026;28;20205;-78
2022/07/24 01:26:01;;;;;;;4.35;4.05;;;21.00;99.90;;;;;;5032840;28;20234;-78
2022/07/24 01:28:29;;;;;;;4.70;4.28;;;21.10;99.90;;;;;;5030503;28;20218;-78
2022/07/24 01:30:56;;;;;;;5.05;4.55;;;21.20;99.90;;;;;;5048386;28;20217;-78
2022/07/24 01:33:24;;;;;;;6.10;5.20;;;20.90;99.90;;;;;;5050791;28;20206;-78
2022/07/24 01:35:52;;;;;;;6.47;4.90;;;20.90;99.90;;;;;;5045550;28;20231;-78
2022/07/24 01:38:21;;;;;;;5.65;4.35;;;20.80;99.90;;;;;;5050806;28;20186;-78
2022/07/24 01:40:48;;;;;;;5.20;4.68;;;20.80;99.90;;;;;;5035222;28;20359;-78
2022/07/24 01:43:16;;;;;;;5.57;4.75;;;20.90;99.90;;;;;;5032543;28;20210;-78
2022/07/24 01:45:43;;;;;;;4.30;3.90;;;20.80;99.90;;;;;;5049485;28;20230;-78
2022/07/24 01:48:11;;;;;;;5.40;4.45;;;21.00;99.90;;;;;;5051893;28;20214;-78
2022/07/24 01:50:39;;;;;;;5.40;5.00;;;21.20;99.90;;;;;;5025504;28;20206;-78
2022/07/24 01:53:06;;;;;;;5.10;4.60;;;21.00;99.90;;;;;;5029502;28;20205;-78
2022/07/24 01:55:35;;;;;;;5.78;4.60;;;21.10;99.90;;;;;;5043520;28;20613;-79
2022/07/24 01:58:02;;;;;;;4.88;4.47;;;20.90;99.90;;;;;;5041693;28;20199;-79
2022/07/24 02:00:30;;;;;;;5.45;4.47;;;21.00;99.90;;;;;;5030548;28;20199;-78
2022/07/24 02:02:57;;;;;;;6.25;5.00;;;20.80;99.90;;;;;;5038136;28;20206;-78
2022/07/24 02:05:25;;;;;;;5.05;4.47;;;20.60;99.90;;;;;;5042902;28;20225;-78
2022/07/24 02:07:57;;;;;;;5.30;4.72;;;20.70;99.90;;;;;;5043298;28;20203;-78
2022/07/24 02:10:26;;;;;;;5.47;4.97;;;20.80;99.90;;;;;;5044136;28;20190;-78
2022/07/24 02:12:55;;;;;;;5.00;4.60;;;20.50;99.90;;;;;;5053668;28;20217;-78
2022/07/24 02:15:23;;;;;;;5.57;4.38;;;20.60;99.90;;;;;;5046194;28;20211;-78
2022/07/24 02:17:53;;;;;;;5.20;4.60;;;20.40;99.90;;;;;;5039231;28;20214;-78
2022/07/24 02:20:21;;;;;;;5.88;5.38;;;20.80;99.90;;;;;;5050714;28;20210;-78
2022/07/24 02:22:49;;;;;;;5.68;5.07;;;20.80;99.90;;;;;;5051881;28;20217;-78
2022/07/24 02:25:16;;;;;;;5.38;4.32;;;20.70;99.90;;;;;;5035234;28;20222;-78
2022/07/24 02:27:44;;;;;;;6.03;4.72;;;20.70;99.90;;;;;;5031817;28;20216;-78
2022/07/24 02:30:18;;;;;;;7.95;4.75;;;20.90;99.90;;;;;;5054551;28;20678;-78
2022/07/24 02:32:46;;;;;;;5.65;5.15;;;20.60;99.90;;;;;;5030574;28;20194;-78
2022/07/24 02:35:13;;;;;;;5.15;4.75;;;20.50;99.90;;;;;;5044749;28;20242;-78
2022/07/24 02:37:43;;;;;;;5.10;4.70;;;20.50;99.90;;;;;;5036085;28;20199;-78
2022/07/24 02:40:12;;;;;;;5.18;4.78;;;20.60;99.90;;;;;;5033112;28;20214;-78
2022/07/24 02:42:40;;;;;;;5.80;5.22;;;20.50;99.90;;;;;;5044665;28;20224;-78
2022/07/24 02:45:08;;;;;;;5.50;4.82;;;20.40;99.90;;;;;;5045070;28;20218;-78
2022/07/24 02:47:46;;;;;;;5.75;5.13;;;20.30;99.90;;;;;;5050445;28;20210;-78
2022/07/24 02:50:13;;;;;;;5.10;4.63;;;20.50;99.90;;;;;;5028338;28;20230;-78
2022/07/24 02:52:41;;;;;;;4.95;4.55;;;20.60;99.90;;;;;;5043860;28;20187;-78
2022/07/24 02:55:09;;;;;;;5.53;4.70;;;20.50;99.90;;;;;;5048201;28;20218;-78
2022/07/24 02:57:37;;;;;;;4.90;4.50;;;20.70;99.90;;;;;;5046010;28;20203;-78
2022/07/24 03:00:06;;;;;;;5.53;4.88;;;20.60;99.90;;;;;;5040905;28;20195;-78
2022/07/24 03:02:36;;;;;;;4.47;4.05;;;20.30;99.90;;;;;;5046202;28;20206;-78
2022/07/24 03:05:06;;;;;;;6.55;4.90;;;20.20;99.90;;;;;;5029115;28;20214;-78
2022/07/24 03:07:33;;;;;;;5.97;4.55;;;20.00;99.90;;;;;;5047856;28;20209;-78
2022/07/24 03:10:01;;;;;;;4.57;4.18;;;20.10;99.90;;;;;;5051335;28;20218;-78
2022/07/24 03:12:28;;;;;;;4.93;4.53;;;20.10;99.90;;;;;;5050579;28;20206;-78
2022/07/24 03:14:56;;;;;;;5.18;4.68;;;20.30;99.90;;;;;;5027144;28;20228;-78
2022/07/24 03:17:23;;;;;;;4.80;4.40;;;20.40;99.90;;;;;;5026674;28;20308;-78
2022/07/24 03:19:52;;;;;;;4.80;4.40;;;20.40;99.90;;;;;;5046180;28;20209;-78
2022/07/24 03:22:19;;;;;;;5.45;4.93;;;20.40;99.90;;;;;;5021503;28;20202;-78
2022/07/24 03:24:47;;;;;;;5.60;5.10;;;20.30;99.90;;;;;;5045600;28;20225;-78
2022/07/24 03:27:14;;;;;;;5.50;5.00;;;20.50;99.90;;;;;;5047073;28;20190;-78
2022/07/24 03:29:42;;;;;;;5.65;4.97;;;20.50;99.90;;;;;;5043647;28;20225;-78
2022/07/24 03:32:09;;;;;;;6.47;4.90;;;20.30;99.90;;;;;;5023392;28;20199;-78
2022/07/24 03:34:37;;;;;;;5.15;4.65;;;20.40;99.90;;;;;;5036416;28;20229;-78
2022/07/24 03:37:06;;;;;;;5.45;5.00;;;20.40;99.90;;;;;;5045922;28;20483;-78
2022/07/24 03:39:33;;;;;;;5.20;4.80;;;20.30;99.90;;;;;;5042986;28;20213;-78
2022/07/24 03:42:00;;;;;;;4.88;4.47;;;20.50;99.90;;;;;;5046126;28;20195;-78
2022/07/24 03:44:28;;;;;;;5.50;5.00;;;20.10;99.90;;;;;;5042678;28;20223;-78
2022/07/24 03:46:56;;;;;;;5.82;4.63;;;20.30;99.90;;;;;;5027718;28;20203;-78
2022/07/24 03:49:24;;;;;;;4.82;4.50;;;20.30;99.90;;;;;;5034856;28;20210;-78
2022/07/24 03:51:51;;;;;;;4.78;4.38;;;20.30;99.90;;;;;;5042226;28;20206;-78
2022/07/24 03:54:21;;;;;;;5.80;4.45;;;20.40;99.90;;;;;;5042665;28;20684;-78
2022/07/24 03:56:48;;;;;;;5.85;5.20;;;20.60;99.90;;;;;;5031645;28;20198;-78
2022/07/24 03:59:16;;;;;;;5.65;5.15;;;20.40;99.90;;;;;;5031925;28;20197;-78
2022/07/24 04:01:44;;;;;;;5.00;4.60;;;20.30;99.90;;;;;;5050959;28;20665;-81
2022/07/24 04:04:11;;;;;;;4.53;4.13;;;20.40;99.90;;;;;;5056365;28;20199;-81
2022/07/24 04:06:40;;;;;;;5.55;4.45;;;20.30;99.90;;;;;;5058552;28;20194;-80
2022/07/24 04:09:08;;;;;;;5.57;4.78;;;20.50;99.90;;;;;;5055085;28;20214;-81
2022/07/24 04:11:37;;;;;;;5.22;4.80;;;20.50;99.90;;;;;;5062367;28;20201;-81
2022/07/24 04:14:05;;;;;;;5.80;5.05;;;20.50;99.90;;;;;;5053634;28;20210;-81
2022/07/24 04:16:32;;;;;;;5.07;4.57;;;20.60;99.90;;;;;;5054403;28;20194;-80
2022/07/24 04:19:00;;;;;;;5.40;4.82;;;20.60;99.90;;;;;;5036272;28;20202;-81
2022/07/24 04:21:27;;;;;;;5.03;4.55;;;20.70;99.90;;;;;;5057093;28;20201;-81
2022/07/24 04:23:55;;;;;;;6.35;5.07;;;20.70;99.90;;;;;;5037645;28;20198;-81
2022/07/24 04:26:22;;;;;;;5.68;5.15;;;20.80;99.90;;;;;;5064254;28;20190;-80
2022/07/24 04:28:51;;;;;;;5.63;5.13;;;20.90;99.90;;;;;;5053937;28;20569;-81
2022/07/24 04:31:19;;;;;;;4.53;4.15;;;20.80;99.90;;;;;;5057307;28;20205;-81
2022/07/24 04:33:46;;;;;;;4.95;4.45;;;20.80;99.90;;;;;;5041969;28;20198;-80
2022/07/24 04:36:14;;;;;;;5.30;4.72;;;20.90;99.90;;;;;;5056280;28;20222;-80
2022/07/24 04:38:41;;;;;;;5.25;4.85;;;20.80;99.90;;;;;;5057581;28;20208;-81
2022/07/24 04:41:09;;;;;;;5.22;4.82;;;21.00;99.90;;;;;;5042630;28;20561;-81
2022/07/24 04:43:36;;;;;;;5.43;4.80;;;20.90;99.90;;;;;;5041497;28;20567;-81
2022/07/24 04:46:05;;;;;;;4.90;4.50;;;21.10;99.90;;;;;;5048016;28;20231;-81
2022/07/24 04:48:33;;;;;;;4.88;4.43;;;21.00;99.90;;;;;;5052933;28;20194;-80
2022/07/24 04:51:00;;;;;;;5.32;4.93;;;21.00;99.90;;;;;;5040409;28;20233;-80
2022/07/24 04:53:30;;;;;;;5.30;4.80;;;20.80;99.90;;;;;;5050977;28;20225;-81
2022/07/24 04:55:58;;;;;;;4.75;4.35;;;21.00;99.90;;;;;;5037115;28;20227;-80
2022/07/24 04:58:27;;;;;;;6.57;5.13;;;21.10;99.90;;;;;;5054761;28;20198;-80
2022/07/24 05:00:54;;;;;;;5.15;4.65;;;21.00;99.90;;;;;;5056534;28;20198;-81
2022/07/24 05:03:23;;;;;;;8.10;5.65;;;21.00;99.90;;;;;;5039961;28;20222;-80
2022/07/24 05:05:51;;;;;;;5.40;4.90;;;21.00;99.90;;;;;;5058119;28;20218;-81
2022/07/24 05:08:18;;;;;;;5.68;4.50;;;21.10;99.90;;;;;;5037890;28;20210;-80
2022/07/24 05:10:46;;;;;;;5.47;4.97;;;21.10;99.90;;;;;;5037216;28;20229;-80
2022/07/24 05:13:13;;;;;;;7.38;5.13;;;21.20;99.90;;;;;;5031230;28;20213;-80
2022/07/24 05:15:41;;;;;;;5.55;5.03;;;21.30;99.90;;;;;;5041093;28;20228;-81
2022/07/24 05:18:08;;;;;;;5.15;4.63;;;21.40;99.90;;;;;;5052049;28;20205;-81
2022/07/24 05:20:37;;;;;;;5.25;4.70;;;21.30;99.90;;;;;;5054524;28;20190;-80
2022/07/24 05:23:05;;;;;;;6.00;5.38;;;21.40;99.90;;;;;;5041640;28;20198;-80
2022/07/24 05:25:32;;;;;;;5.60;5.10;;;21.10;99.90;;;;;;5035788;28;20211;-79
2022/07/24 05:28:00;;;;;;;6.47;5.03;;;21.00;99.90;;;;;;5052190;28;20682;-80
2022/07/24 05:30:27;;;;;;;6.03;5.53;;;21.00;99.90;;;;;;5062840;28;20218;-79
2022/07/24 05:32:55;;;;;;;5.30;4.90;;;20.90;99.90;;;;;;5049935;28;20198;-80
2022/07/24 05:35:23;;;;;;;5.43;4.95;;;21.00;99.90;;;;;;5029034;28;20223;-80
2022/07/24 05:37:53;;;;;;;6.13;5.50;;;21.00;99.90;;;;;;5051021;28;20202;-79
2022/07/24 05:40:26;;;;;;;6.00;5.50;;;21.10;99.90;;;;;;5050100;28;20590;-79
2022/07/24 05:42:55;;;;;;;5.95;5.35;;;21.20;99.90;;;;;;5048820;28;20648;-80
2022/07/24 05:45:22;;;;;;;5.65;5.15;;;21.20;99.90;;;;;;5049947;28;20239;-80
2022/07/24 05:47:51;;;;;;;6.13;5.63;;;21.20;99.90;;;;;;5049031;28;20198;-79
2022/07/24 05:50:19;;;;;;;5.70;5.20;;;21.40;99.90;;;;;;5030903;28;20226;-79
2022/07/24 05:52:47;;;;;;;5.75;5.25;;;21.30;99.90;;;;;;5035061;28;20207;-80
2022/07/24 05:55:16;;;;;;;5.60;5.20;;;21.50;99.90;;;;;;5039786;28;20587;-80
2022/07/24 05:57:46;;;;;;;5.97;5.47;;;21.50;99.90;;;;;;5041272;28;20194;-79
2022/07/24 06:00:18;;;;;;;5.53;5.05;;;21.50;99.90;;;;;;5052238;28;20207;-79
2022/07/24 06:02:46;;;;;;;5.68;5.18;;;21.60;99.90;;;;;;5053775;28;20584;-80
2022/07/24 06:05:14;;;;;;;5.38;4.88;;;21.80;99.90;;;;;;5051480;28;20584;-80
2022/07/24 06:07:44;;;;;;;6.07;5.35;;;21.90;99.90;;;;;;5046729;28;20195;-80
2022/07/24 06:10:12;;;;;;;6.05;5.55;;;21.80;99.90;;;;;;5034344;28;20222;-80
2022/07/24 06:12:41;;;;;;;5.30;4.80;;;21.80;99.90;;;;;;5049297;28;20199;-79
2022/07/24 06:15:09;;;;;;;5.82;5.13;;;21.90;99.90;;;;;;5030944;28;20230;-79
2022/07/24 06:17:37;;;;;;;5.90;5.22;;;21.90;99.90;;;;;;5039784;28;20202;-78
2022/07/24 06:20:05;;;;;;;5.63;5.10;;;22.00;99.90;;;;;;5041953;28;20203;-79
2022/07/24 06:22:33;;;;;;;5.30;4.90;;;22.10;99.90;;;;;;5045882;28;20201;-79
2022/07/24 06:25:00;;;;;;;5.88;4.95;;;22.10;99.90;;;;;;5038213;28;20225;-79
2022/07/24 06:27:28;;;;;;;5.53;5.13;;;22.20;99.90;;;;;;5019831;28;20210;-79
2022/07/24 06:29:57;;;;;;;4.68;4.28;;;22.30;99.90;;;;;;5049787;28;20213;-79
2022/07/24 06:32:25;;;;;;;6.20;4.88;;;22.30;99.90;;;;;;5022455;28;20198;-79
2022/07/24 06:34:52;;;;;;;5.53;4.95;;;22.30;99.90;;;;;;5035830;28;20226;-79
2022/07/24 06:37:19;;;;;;;5.30;4.80;;;22.30;99.90;;;;;;5030554;28;20590;-79
2022/07/24 06:39:47;;;;;;;5.32;4.75;;;22.50;99.80;;;;;;5046016;28;20209;-79
2022/07/24 06:42:14;;;;;;;4.97;4.53;;;22.50;99.90;;;;;;5034069;28;20207;-79
2022/07/24 06:44:42;;;;;;;5.80;5.10;;;22.50;99.90;;;;;;5016956;28;20215;-79
2022/07/24 06:47:11;;;;;;;5.65;4.97;;;22.40;99.90;;;;;;5049565;28;20316;-79
2022/07/24 06:49:38;;;;;;;5.03;4.53;;;22.60;99.90;;;;;;5025108;28;20197;-79
2022/07/24 06:52:06;;;;;;;5.15;4.75;;;22.80;99.90;;;;;;5047969;28;20241;-79
2022/07/24 06:54:33;;;;;;;5.88;4.50;;;22.80;99.00;;;;;;5035132;28;20584;-79
2022/07/24 06:57:01;;;;;;;5.20;4.70;;;22.80;99.00;;;;;;5047454;28;20209;-79
2022/07/24 06:59:28;;;;;;;5.80;4.90;;;22.70;98.70;;;;;;5048757;28;20190;-79
2022/07/24 07:01:56;;;;;;;5.10;4.70;;;22.70;98.70;;;;;;5028221;28;20203;-79
2022/07/24 07:04:24;;;;;;;5.85;4.60;;;22.80;98.70;;;;;;5046744;28;20221;-79
2022/07/24 07:06:52;;;;;;;4.80;4.50;;;22.80;98.70;;;;;;5051999;28;20205;-79
2022/07/24 07:09:19;;;;;;;5.20;4.70;;;22.90;99.30;;;;;;5041674;28;20222;-79
2022/07/24 07:11:47;;;;;;;6.05;5.38;;;23.00;98.90;;;;;;5046313;28;20221;-79
2022/07/24 07:14:15;;;;;;;5.13;4.72;;;23.00;99.10;;;;;;5044875;28;20218;-79
2022/07/24 07:16:42;;;;;;;6.65;5.00;;;22.90;97.90;;;;;;5027207;28;20567;-79
2022/07/24 07:19:22;;;;;;;7.38;4.75;;;22.90;99.00;;;;;;5043335;28;20653;-79
2022/07/24 07:21:51;;;;;;;5.15;4.60;;;22.80;98.70;;;;;;5046045;28;20191;-79
2022/07/24 07:24:18;;;;;;;5.55;5.05;;;23.00;98.60;;;;;;5043466;28;20225;-79
2022/07/24 07:26:46;;;;;;;5.38;4.95;;;23.10;98.30;;;;;;5046363;28;20199;-79
2022/07/24 07:29:26;;;;;;;5.25;4.85;;;23.10;97.90;;;;;;5045955;28;20199;-79
2022/07/24 07:31:54;;;;;;;5.53;4.90;;;23.10;97.90;;;;;;5023737;28;20218;-79
2022/07/24 07:34:21;;;;;;;5.78;5.28;;;23.20;97.90;;;;;;5037908;28;20215;-80
2022/07/24 07:36:50;;;;;;;6.03;5.28;;;23.20;98.10;;;;;;5045211;28;20657;-78
2022/07/24 07:39:18;;;;;;;6.03;5.53;;;23.30;97.90;;;;;;5046152;28;20198;-79
2022/07/24 07:41:45;;;;;;;5.65;5.15;;;23.40;98.10;;;;;;5035126;28;20199;-79
2022/07/24 07:44:13;;;;;;;5.68;5.18;;;23.50;98.30;;;;;;5030438;28;20201;-79
2022/07/24 07:46:44;;;;;;;5.80;5.20;;;23.50;97.50;;;;;;5031915;28;20210;-79
2022/07/24 07:49:14;;;;;;;6.10;5.18;;;23.60;97.50;;;;;;5053118;28;20193;-79
2022/07/24 07:51:47;;;;;;;6.68;5.25;;;23.50;97.10;;;;;;5040396;28;20219;-79
2022/07/24 07:54:16;;;;;;;8.95;5.95;;;23.50;96.80;;;;;;5054412;28;20221;-79
2022/07/24 07:56:43;;;;;;;5.65;5.10;;;23.50;96.60;;;;;;5059631;28;20199;-79
2022/07/24 07:59:12;;;;;;;6.57;5.63;;;23.40;97.10;;;;;;5054911;28;20217;-79
2022/07/24 08:01:40;;;;;;;7.20;5.45;;;23.60;97.20;;;;;;5066990;28;20194;-79
2022/07/24 08:04:07;;;;;;;8.35;5.10;;;23.60;96.60;;;;;;5042957;28;20207;-79
2022/07/24 08:06:35;;;;;;;6.32;5.55;;;23.70;96.80;;;;;;5040735;28;20553;-79
2022/07/24 08:09:03;;;;;;;6.60;5.88;;;23.90;96.60;;;;;;5056485;28;20206;-80
2022/07/24 08:11:32;;;;;;;6.47;5.80;;;23.80;96.10;;;;;;5030225;28;20215;-80
2022/07/24 08:13:59;;;;;;;6.40;5.90;;;23.70;96.30;;;;;;5057816;28;20198;-80
2022/07/24 08:16:28;;;;;;;6.60;6.00;;;23.70;96.40;;;;;;5049539;28;20195;-80
2022/07/24 08:18:56;;;;;;;6.55;5.95;;;23.70;96.30;;;;;;5042038;28;20209;-81
2022/07/24 08:21:23;;;;;;;6.95;6.25;;;23.70;95.60;;;;;;5059038;28;20195;-80
2022/07/24 08:23:54;;;;;;;7.30;6.60;;;23.80;95.30;;;;;;5053453;28;20645;-80
2022/07/24 08:26:21;;;;;;;6.90;6.30;;;23.80;95.00;;;;;;5038766;28;20203;-82
2022/07/24 08:28:50;;;;;;;7.50;6.72;;;23.80;95.20;;;;;;5048889;28;20202;-82
2022/07/24 08:31:18;;;;;;;7.13;6.43;;;23.80;94.90;;;;;;5053124;28;20576;-82
2022/07/24 08:33:45;;;;;;;7.15;6.45;;;23.90;94.50;;;;;;5036114;28;20203;-81
2022/07/24 08:36:13;;;;;;;7.63;6.85;;;23.90;94.60;;;;;;5057428;28;20214;-81
2022/07/24 08:38:40;;;;;;;6.75;6.15;;;24.00;94.40;;;;;;5048857;28;20209;-82
2022/07/24 08:41:08;;;;;;;7.18;6.57;;;24.00;94.50;;;;;;5033232;28;20190;-83
2022/07/24 08:43:36;;;;;;;6.50;6.00;;;24.10;94.30;;;;;;5036523;28;20225;-82
2022/07/24 08:46:09;;;;;;;5.82;5.32;;;24.10;94.60;;;;;;5047523;28;20226;-82
2022/07/24 08:48:37;;;;;;;7.03;6.43;;;24.20;94.90;;;;;;5036364;28;20202;-82
2022/07/24 08:51:05;;;;;;;7.40;6.63;;;24.30;94.30;;;;;;5037504;28;20558;-81
2022/07/24 08:53:32;;;;;;;7.28;6.68;;;24.30;94.30;;;;;;5048730;28;20198;-80
2022/07/24 08:56:02;;;;;;;7.38;6.68;;;24.30;94.00;;;;;;5035943;28;20225;-80
2022/07/24 08:58:37;;;;;;;7.13;6.43;;;24.40;94.10;;;;;;5034388;28;20190;-81
2022/07/24 09:01:08;;;;;;;7.47;6.78;;;24.60;94.30;;;;;;5056077;28;20190;-81
2022/07/24 09:03:41;;;;;;;7.38;6.70;;;24.50;93.80;;;;;;5052013;28;20278;-81
2022/07/24 09:06:10;;;;;;;7.63;6.82;;;24.50;94.10;;;;;;5056431;28;20223;-81
2022/07/24 09:08:42;;;;;;;8.00;6.78;;;24.70;94.00;;;;;;5037411;28;20195;-81
2022/07/24 09:11:11;;;;;;;8.15;7.35;;;24.70;94.10;;;;;;5044152;28;20195;-80
2022/07/24 09:16:27;;;;;;;7.93;7.22;;;24.70;93.60;;;;;;5037856;28;20210;-82
2022/07/24 09:19:05;;;;;;;7.32;6.63;;;24.80;94.10;;;;;;5059881;28;20207;-80
2022/07/24 09:21:34;;;;;;;7.57;6.85;;;24.80;93.70;;;;;;5031885;28;20186;-80
2022/07/24 09:24:11;;;;;;;7.93;6.45;;;24.90;93.90;;;;;;5038279;28;20198;-83
2022/07/24 09:26:45;;;;;;;8.80;6.88;;;25.20;94.10;;;;;;5053485;28;20282;-81
2022/07/24 09:29:13;;;;;;;7.90;6.97;;;25.30;93.60;;;;;;5043314;28;20214;-81
2022/07/24 09:31:54;;;;;;;7.38;6.72;;;25.30;93.70;;;;;;5058100;28;20218;-81
2022/07/24 09:34:22;;;;;;;7.80;7.10;;;25.40;93.30;;;;;;5049095;28;20245;-79
2022/07/24 09:36:59;;;;;;;8.02;7.22;;;25.30;93.40;;;;;;5040802;28;20206;-80
2022/07/24 09:39:35;;;;;;;7.38;6.78;;;25.40;93.40;;;;;;5035900;28;20207;-81
2022/07/24 09:42:05;;;;;;;7.70;7.00;;;25.60;93.60;;;;;;5049798;28;20194;-81
2022/07/24 09:44:34;;;;;;;9.23;7.82;;;25.40;93.10;;;;;;5050934;28;20603;-81
2022/07/24 09:47:09;;;;;;;7.70;6.97;;;25.30;93.20;;;;;;5053593;28;20214;-81
2022/07/24 09:49:45;;;;;;;8.02;7.22;;;25.30;93.60;;;;;;5048424;28;20209;-81
2022/07/24 09:52:15;;;;;;;7.85;7.15;;;25.30;93.20;;;;;;5037207;28;20580;-81
2022/07/24 09:54:44;;;;;;;9.40;8.20;;;25.50;93.20;;;;;;5050840;28;20691;-81
2022/07/24 09:57:24;;;;;;;8.07;7.35;;;25.40;92.90;;;;;;5037238;28;20678;-81
2022/07/24 09:59:57;;;;;;;8.10;7.30;;;25.50;93.20;;;;;;5044168;28;20561;-81
2022/07/24 10:02:43;;;;;;;7.32;6.72;;;25.60;93.00;;;;;;5038437;28;20640;-80
2022/07/24 10:05:13;;;;;;;8.18;7.38;;;25.50;93.00;;;;;;5035176;28;20219;-81
2022/07/24 10:07:42;;;;;;;7.72;7.03;;;25.50;92.90;;;;;;5051090;28;20195;-81
2022/07/24 10:10:16;;;;;;;9.07;7.10;;;25.60;93.10;;;;;;5043423;28;21323;-81
2022/07/24 10:12:46;;;;;;;7.53;6.82;;;25.80;92.50;;;;;;5038891;28;20202;-81
2022/07/24 10:15:15;;;;;;;7.85;7.15;;;25.80;92.60;;;;;;5059436;28;20218;-81
2022/07/24 10:18:13;;;;;;;7.85;7.15;;;25.90;92.60;;;;;;5046844;28;20214;-82
2022/07/24 10:21:04;;;;;;;7.93;6.95;;;26.00;93.10;;;;;;5049318;28;20198;-81
2022/07/24 10:23:49;;;;;;;8.40;7.60;;;26.00;91.90;;;;;;5040346;28;20199;-81
2022/07/24 10:26:27;;;;;;;7.50;6.80;;;26.00;91.90;;;;;;5060284;28;20218;-81
2022/07/24 10:29:06;;;;;;;7.80;7.10;;;26.00;91.30;;;;;;5043448;28;20198;-81
2022/07/24 10:31:34;;;;;;;7.95;7.00;;;25.90;91.30;;;;;;5034776;28;20198;-81
2022/07/24 10:34:07;;;;;;;7.10;6.47;;;25.90;91.20;;;;;;5045020;28;20237;-84
2022/07/24 10:36:39;;;;;;;6.95;6.32;;;26.10;91.50;;;;;;5047159;28;20194;-81
2022/07/24 10:39:17;;;;;;;7.53;6.80;;;26.20;91.40;;;;;;5045989;28;20198;-81
2022/07/24 10:42:00;;;;;;;7.22;6.53;;;26.20;90.90;;;;;;5071436;28;20197;-81
2022/07/24 10:44:27;;;;;;;7.63;7.03;;;26.30;90.90;;;;;;5041139;28;20233;-81
2022/07/24 10:47:03;;;;;;;7.03;6.38;;;26.50;90.40;;;;;;5047742;28;20228;-82
2022/07/24 10:49:46;;;;;;;7.45;6.70;;;26.50;91.00;;;;;;5060784;28;20225;-82
2022/07/24 10:52:23;;;;;;;6.60;6.00;;;26.50;90.20;;;;;;5041256;28;20214;-81
2022/07/24 10:55:26;;;;;;;7.57;6.65;;;26.60;90.00;;;;;;5047989;28;20225;-81
2022/07/24 10:58:00;;;;;;;8.05;6.85;;;26.50;90.40;;;;;;5039888;28;20190;-81
2022/07/24 11:00:34;;;;;;;7.07;6.35;;;26.70;90.40;;;;;;5063987;28;20202;-84
2022/07/24 11:03:05;;;;;;;7.53;6.82;;;26.60;90.00;;;;;;5057146;28;20202;-81
2022/07/24 11:05:38;;;;;;;7.88;7.05;;;26.70;89.00;;;;;;5051320;28;20567;-82
2022/07/24 11:08:39;;;;;;;7.60;6.90;;;26.70;89.50;;;;;;5049196;28;20202;-81
2022/07/24 11:11:15;;;;;;;7.43;6.78;;;26.70;88.00;;;;;;5051986;28;20202;-81
2022/07/24 11:13:51;;;;;;;7.43;6.75;;;26.90;88.90;;;;;;5031369;28;20217;-80
2022/07/24 11:16:24;;;;;;;7.13;6.53;;;27.20;88.40;;;;;;5036129;28;20221;-81
2022/07/24 11:19:33;;;;;;;7.25;6.65;;;27.20;87.80;;;;;;5050051;28;20198;-81
2022/07/24 11:22:14;;;;;;;7.28;6.57;;;27.50;87.70;;;;;;5038436;28;20205;-82
2022/07/24 11:25:10;;;;;;;7.25;6.50;;;27.50;85.70;;;;;;5050081;28;20241;-82
2022/07/24 11:27:48;;;;;;;6.70;5.88;;;27.50;84.40;;;;;;5055774;28;20197;-81
2022/07/24 11:30:16;;;;;;;7.22;6.53;;;27.50;82.70;;;;;;5052587;28;20191;-82
2022/07/24 11:32:44;;;;;;;7.57;6.88;;;27.60;83.10;;;;;;5043964;28;20215;-81
2022/07/24 11:35:12;;;;;;;7.22;6.63;;;27.70;83.60;;;;;;5051465;28;20217;-81
2022/07/24 11:37:43;;;;;;;6.82;6.22;;;27.80;83.00;;;;;;5039855;28;20202;-82
2022/07/24 11:40:15;;;;;;;7.50;6.80;;;27.90;82.30;;;;;;5037627;28;20199;-82
2022/07/24 11:42:43;;;;;;;6.45;5.85;;;28.00;81.00;;;;;;5056632;28;20206;-81
2022/07/24 11:45:11;;;;;;;7.35;6.68;;;27.80;78.80;;;;;;5052170;28;20237;-82
2022/07/24 11:47:38;;;;;;;8.18;7.00;;;27.60;78.10;;;;;;5047243;28;20202;-81
2022/07/24 11:50:08;;;;;;;8.00;7.30;;;27.80;79.30;;;;;;5050528;28;20193;-81
2022/07/24 11:52:38;;;;;;;6.18;5.68;;;27.70;79.10;;;;;;5030620;28;20202;-81
2022/07/24 11:55:09;;;;;;;7.13;6.43;;;27.60;76.70;;;;;;5033899;28;20217;-81
2022/07/24 11:57:39;;;;;;;7.43;6.63;;;27.80;77.60;;;;;;5035584;28;20187;-81
2022/07/24 12:00:10;;;;;;;7.47;6.88;;;27.90;78.20;;;;;;5057864;28;20205;-81
2022/07/24 12:02:44;;;;;;;7.53;6.82;;;27.90;77.00;;;;;;5066772;28;20194;-82
2022/07/24 12:05:12;;;;;;;7.80;6.50;;;28.10;77.50;;;;;;5043900;28;20237;-81
2022/07/24 12:07:39;;;;;;;7.28;6.57;;;28.00;77.00;;;;;;5027427;28;20205;-81
2022/07/24 12:10:09;;;;;;;6.93;6.18;;;28.20;77.40;;;;;;5043794;28;20199;-80
2022/07/24 12:12:40;;;;;;;7.68;6.97;;;28.30;77.10;;;;;;5030021;28;20197;-81
2022/07/24 12:15:11;;;;;;;7.38;6.68;;;28.50;77.40;;;;;;5027727;28;20484;-81
2022/07/24 12:17:55;;;;;;;7.07;6.47;;;28.50;77.00;;;;;;5031980;28;20205;-81
2022/07/24 12:20:24;;;;;;;7.32;6.15;;;28.60;75.30;;;;;;5047308;28;20193;-81
2022/07/24 12:22:52;;;;;;;7.63;6.88;;;28.80;76.30;;;;;;5042403;28;20194;-81
2022/07/24 12:25:23;;;;;;;7.15;6.45;;;28.80;76.00;;;;;;5045581;28;20222;-81
2022/07/24 12:27:52;;;;;;;8.05;7.35;;;29.10;75.60;;;;;;5032580;28;20281;-81
2022/07/24 12:30:23;;;;;;;7.13;6.53;;;28.90;75.40;;;;;;5032325;28;20277;-81
2022/07/24 12:33:00;;;;;;;7.57;6.85;;;28.90;74.90;;;;;;5033123;28;20695;-81
2022/07/24 12:35:28;;;;;;;7.30;6.70;;;28.90;72.60;;;;;;5052088;28;20222;-81
2022/07/24 12:37:58;;;;;;;6.90;6.30;;;28.60;72.00;;;;;;5046078;28;20194;-81
2022/07/24 12:40:37;;;;;;;7.20;6.60;;;28.70;73.80;;;;;;5043627;28;20194;-80
2022/07/24 12:43:12;;;;;;;8.50;7.70;;;28.50;74.70;;;;;;5031625;28;20197;-81
2022/07/24 12:45:40;;;;;;;7.43;6.82;;;28.60;74.80;;;;;;5041268;28;20237;-81
2022/07/24 12:48:16;;;;;;;7.75;7.15;;;28.80;75.90;;;;;;5031661;28;20194;-79
2022/07/24 12:51:01;;;;;;;8.07;7.30;;;29.00;75.20;;;;;;5029073;28;20198;-80
2022/07/24 12:53:30;;;;;;;7.10;6.50;;;29.00;72.50;;;;;;5059453;28;20221;-80
2022/07/24 12:56:08;;;;;;;7.38;6.68;;;29.10;74.20;;;;;;5039616;28;20715;-79
2022/07/24 12:59:00;;;;;;;7.05;6.43;;;29.50;72.40;;;;;;5028601;28;20588;-78
2022/07/24 13:01:43;;;;;;;7.85;6.90;;;29.50;71.30;;;;;;5051987;28;20203;-78
2022/07/24 13:04:11;;;;;;;7.32;6.72;;;29.60;72.60;;;;;;5041559;28;20209;-79
2022/07/24 13:06:41;;;;;;;6.93;6.43;;;29.70;70.30;;;;;;5050297;28;20538;-78
2022/07/24 13:09:11;;;;;;;7.35;6.65;;;29.60;69.80;;;;;;5033726;28;20218;-78